LFPO/ORY METAR and TAF weather

Enter ICAO airport designator
Station Type Date Time Source
LFPO METAR 2021/09/24 03:30 UTC NOAA

LFPO 240330Z VRB01KT 6000 OVC004 13/13 Q1020 TEMPO 4000 BR


Station Type Date Time Source
LFPO Decoded METAR 2021/09/24 03:30 UTC NOAA

Paris-Orly, France (LFPO) 48-44N 002-24E 96M
Sep 23, 2021 - 11:30 PM EDT / 2021.09.24 0330 UTC
Wind: Variable at 1 MPH (1 KT):0
Visibility: 3 mile(s):0
Sky conditions: overcast
Temperature: 55 F (13 C)
Dew Point: 55 F (13 C)
Relative Humidity: 100%
Pressure (altimeter): 30.12 in. Hg (1020 hPa)
ob: LFPO 240330Z VRB01KT 6000 OVC004 13/13 Q1020 TEMPO 4000 BR
cycle: 3

Station Type Date Time Source
LFPO TAF 2021/09/24 02:15 UTC NOAA

TAF
AMD TAF
AMD LFPO 240211Z 2402/2506 30003KT 8000 BKN006
TEMPO 2402/2409 3000 BR BKN003 PROB30
TEMPO 2404/2407 0800 FG VV///
BECMG 2409/2411 SCT020 PROB40
TEMPO 2503/2506 3000 BR PROB30 2503/2506 0800 FG

Example: see airport list